Time;durP1;ratioP1;P1;durP2;ratioP2;P2;SDS_P1;SDS_P2;PMS_P1;PMS_P2;Temp;Humidity;BMP_temperature;BMP_pressure;BME280_temperature;BME280_humidity;BME280_pressure;Samples;Min_cycle;Max_cycle;Signal;HPM_P1;HPM_P2
2022/09/07 00:00:11;;;;;;;18.40;16.55;;;20.10;96.00;;;;;;5081735;28;20017;-51
2022/09/07 00:02:57;;;;;;;17.42;15.75;;;20.10;96.10;;;;;;5078388;28;20112;-50
2022/09/07 00:05:46;;;;;;;18.20;16.38;;;20.10;96.10;;;;;;5052522;28;20545;-55
2022/09/07 00:08:32;;;;;;;18.45;16.75;;;20.10;96.10;;;;;;5052677;28;20108;-54
2022/09/07 00:11:18;;;;;;;19.52;17.73;;;20.10;96.20;;;;;;5066642;28;20025;-52
2022/09/07 00:14:06;;;;;;;23.50;20.25;;;20.00;96.30;;;;;;5073494;28;20032;-50
2022/09/07 00:16:52;;;;;;;21.13;18.92;;;20.00;96.40;;;;;;5069021;28;20032;-52
2022/09/07 00:19:38;;;;;;;20.10;18.17;;;20.00;96.40;;;;;;5073206;28;20025;-48
2022/09/07 00:22:24;;;;;;;20.35;18.35;;;20.00;96.40;;;;;;5077609;28;20088;-49
2022/09/07 00:25:10;;;;;;;21.13;19.23;;;19.80;96.70;;;;;;5052345;28;20029;-52
2022/09/07 00:27:56;;;;;;;18.65;16.95;;;19.80;96.90;;;;;;5052424;28;20033;-50
2022/09/07 00:30:42;;;;;;;21.50;19.38;;;19.80;97.00;;;;;;5051588;28;20505;-52
2022/09/07 00:33:29;;;;;;;22.20;20.17;;;19.70;97.00;;;;;;5042363;28;20032;-51
2022/09/07 00:36:17;;;;;;;20.48;18.45;;;19.60;97.30;;;;;;5071569;28;20500;-54
2022/09/07 00:39:03;;;;;;;21.55;19.58;;;19.50;97.60;;;;;;5072227;28;20032;-53
2022/09/07 00:41:49;;;;;;;22.45;20.20;;;19.50;97.60;;;;;;5073051;28;20078;-54
2022/09/07 00:44:41;;;;;;;22.27;19.98;;;19.50;97.70;;;;;;5071565;28;20028;-55
2022/09/07 00:47:37;;;;;;;23.15;20.95;;;19.50;97.80;;;;;;5072692;28;20518;-51
2022/09/07 00:50:39;;;;;;;23.45;21.25;;;19.40;98.00;;;;;;5051920;28;20037;-53
2022/09/07 00:53:37;;;;;;;21.98;19.77;;;19.40;98.10;;;;;;5036992;28;20040;-54
2022/09/07 00:56:26;;;;;;;22.08;19.73;;;19.40;98.20;;;;;;5060913;28;20081;-52
2022/09/07 00:59:17;;;;;;;22.25;20.25;;;19.50;98.20;;;;;;5092932;28;20103;-51
2022/09/07 01:02:04;;;;;;;19.95;18.15;;;19.50;98.10;;;;;;5080999;28;20028;-54
2022/09/07 01:04:57;;;;;;;20.45;18.50;;;19.50;98.10;;;;;;5072026;28;20056;-49
2022/09/07 01:07:44;;;;;;;21.25;19.27;;;19.50;98.20;;;;;;5086270;28;20032;-53
2022/09/07 01:10:31;;;;;;;21.52;19.67;;;19.40;98.20;;;;;;5077149;28;20031;-53
2022/09/07 01:13:17;;;;;;;20.70;18.80;;;19.40;98.30;;;;;;5071656;28;20040;-52
2022/09/07 01:16:17;;;;;;;21.15;19.13;;;19.50;98.30;;;;;;5071580;28;20021;-54
2022/09/07 01:19:03;;;;;;;22.67;20.63;;;19.40;98.20;;;;;;5077912;28;20028;-49
2022/09/07 01:22:37;;;;;;;19.85;17.92;;;19.50;98.40;;;;;;5088639;28;20020;-50
2022/09/07 01:25:44;;;;;;;21.23;19.17;;;19.50;98.40;;;;;;5090030;28;20145;-54
2022/09/07 01:28:33;;;;;;;19.35;17.55;;;19.60;98.30;;;;;;5090808;28;20082;-50
2022/09/07 01:31:27;;;;;;;20.60;18.70;;;19.60;98.10;;;;;;5091663;28;20111;-53
2022/09/07 01:34:24;;;;;;;21.70;19.48;;;19.60;98.20;;;;;;5052385;28;20108;-51
2022/09/07 01:37:41;;;;;;;23.00;20.88;;;19.60;98.10;;;;;;5049911;28;20468;-51
2022/09/07 01:40:47;;;;;;;21.33;19.30;;;19.60;98.10;;;;;;5091712;28;20099;-48
2022/09/07 01:43:59;;;;;;;20.60;18.63;;;19.60;98.20;;;;;;5073903;28;20032;-52
2022/09/07 01:47:01;;;;;;;31.05;27.77;;;19.60;98.10;;;;;;5072075;28;20542;-51
2022/09/07 01:49:59;;;;;;;33.72;28.73;;;19.60;98.20;;;;;;5091088;28;20023;-51
2022/09/07 01:53:00;;;;;;;23.98;21.67;;;19.60;98.20;;;;;;5081482;28;20654;-49
2022/09/07 01:56:04;;;;;;;23.02;20.65;;;19.60;98.20;;;;;;5070513;28;20554;-55
2022/09/07 01:59:02;;;;;;;23.50;21.30;;;19.60;98.30;;;;;;5088805;28;20031;-52
2022/09/07 02:01:59;;;;;;;22.55;20.45;;;19.60;98.30;;;;;;5090367;28;20016;-53
2022/09/07 02:04:58;;;;;;;23.52;21.15;;;19.60;98.30;;;;;;5070517;28;20111;-51
2022/09/07 02:07:52;;;;;;;23.90;21.48;;;19.60;98.30;;;;;;5077278;28;20078;-52
2022/09/07 02:10:54;;;;;;;22.40;20.00;;;19.50;98.30;;;;;;5091615;28;20024;-50
2022/09/07 02:13:47;;;;;;;22.45;20.45;;;19.40;98.40;;;;;;5075493;28;20024;-51
2022/09/07 02:16:35;;;;;;;22.85;20.73;;;19.50;98.40;;;;;;5070789;28;20036;-52
2022/09/07 02:19:25;;;;;;;21.92;19.95;;;19.40;98.50;;;;;;5090344;28;20032;-53
2022/09/07 02:22:15;;;;;;;22.58;20.30;;;19.40;98.50;;;;;;5088221;28;20016;-52
2022/09/07 02:25:04;;;;;;;21.77;19.88;;;19.40;98.50;;;;;;5070423;28;20032;-50
2022/09/07 02:27:55;;;;;;;22.23;19.92;;;19.40;98.60;;;;;;5076479;28;20028;-53
2022/09/07 02:30:41;;;;;;;22.23;19.98;;;19.30;98.70;;;;;;5090899;28;20059;-51
2022/09/07 02:33:28;;;;;;;23.25;20.88;;;19.40;98.70;;;;;;5065080;28;20044;-49
2022/09/07 02:36:18;;;;;;;20.42;18.50;;;19.30;98.70;;;;;;5070504;28;20093;-53
2022/09/07 02:39:04;;;;;;;23.23;20.25;;;19.40;98.70;;;;;;5085305;28;20106;-52
2022/09/07 02:41:50;;;;;;;22.98;20.85;;;19.40;98.70;;;;;;5089482;28;20016;-55
2022/09/07 02:44:39;;;;;;;23.65;21.27;;;19.40;98.70;;;;;;5070431;28;20025;-51
2022/09/07 02:47:50;;;;;;;21.13;19.05;;;19.40;98.80;;;;;;5070802;28;20020;-53
2022/09/07 02:50:42;;;;;;;23.08;20.88;;;19.30;98.80;;;;;;5089872;28;20062;-55
2022/09/07 02:53:34;;;;;;;23.85;21.55;;;19.40;98.90;;;;;;5089312;28;20028;-53
2022/09/07 02:56:32;;;;;;;25.02;22.63;;;19.40;98.80;;;;;;5089853;28;20028;-50
2022/09/07 02:59:37;;;;;;;24.23;22.13;;;19.30;98.90;;;;;;5074754;28;20497;-54
2022/09/07 03:02:47;;;;;;;22.70;20.70;;;19.30;99.00;;;;;;5069079;28;20025;-54
2022/09/07 03:05:39;;;;;;;24.20;21.92;;;19.30;99.00;;;;;;5049444;28;20029;-52
2022/09/07 03:08:37;;;;;;;25.73;23.13;;;19.30;98.90;;;;;;5074689;28;20054;-55
2022/09/07 03:11:23;;;;;;;24.63;22.23;;;19.30;99.00;;;;;;5090148;28;20059;-55
2022/09/07 03:14:17;;;;;;;23.40;21.20;;;19.30;99.10;;;;;;5074408;28;20033;-55
2022/09/07 03:17:04;;;;;;;24.53;22.23;;;19.30;99.40;;;;;;5071577;28;20025;-51
2022/09/07 03:19:50;;;;;;;24.58;22.05;;;19.30;99.20;;;;;;5049277;28;20327;-52
2022/09/07 03:22:36;;;;;;;24.92;22.55;;;19.30;99.50;;;;;;5056760;28;20020;-52
2022/09/07 03:25:22;;;;;;;24.13;22.00;;;19.30;99.30;;;;;;5075422;28;20503;-54
2022/09/07 03:28:08;;;;;;;24.80;22.35;;;19.30;99.10;;;;;;5082011;28;20036;-53
2022/09/07 03:30:55;;;;;;;22.95;20.75;;;19.30;99.10;;;;;;5069176;28;20111;-51
2022/09/07 03:33:41;;;;;;;25.55;23.25;;;19.20;99.10;;;;;;5066527;28;20028;-51
2022/09/07 03:36:29;;;;;;;25.02;22.60;;;19.20;99.20;;;;;;5074970;28;20039;-52
2022/09/07 03:39:19;;;;;;;24.13;21.77;;;19.10;99.20;;;;;;5073683;28;20400;-49
2022/09/07 03:42:05;;;;;;;23.25;20.98;;;19.10;99.40;;;;;;5071475;28;20025;-53
2022/09/07 03:44:51;;;;;;;23.35;21.33;;;19.10;99.50;;;;;;5089492;28;20088;-54
2022/09/07 03:47:38;;;;;;;23.73;21.35;;;19.20;99.50;;;;;;5068565;28;20029;-55
2022/09/07 03:50:24;;;;;;;24.98;22.52;;;19.20;99.50;;;;;;5069428;28;20108;-56
2022/09/07 03:53:10;;;;;;;24.02;21.83;;;19.20;99.40;;;;;;5079656;28;20162;-54
2022/09/07 03:56:02;;;;;;;24.70;22.30;;;19.20;99.40;;;;;;5089147;28;20396;-49
2022/09/07 03:58:49;;;;;;;26.08;23.63;;;19.20;99.50;;;;;;5075119;28;20049;-54
2022/09/07 04:01:35;;;;;;;23.42;21.13;;;19.20;99.50;;;;;;5089672;28;20396;-51
2022/09/07 04:04:21;;;;;;;24.40;22.05;;;19.20;99.50;;;;;;5090287;28;20464;-52
2022/09/07 04:07:07;;;;;;;27.00;24.08;;;19.20;99.50;;;;;;5085346;28;20028;-55
2022/09/07 04:09:53;;;;;;;23.02;20.83;;;19.20;99.30;;;;;;5069725;28;20027;-55
2022/09/07 04:12:39;;;;;;;26.40;24.00;;;19.10;99.40;;;;;;5075772;28;20077;-52
2022/09/07 04:15:28;;;;;;;43.13;38.15;;;19.10;99.30;;;;;;5060459;28;20028;-55
2022/09/07 04:18:14;;;;;;;31.40;28.30;;;19.10;99.40;;;;;;5064047;28;20039;-51
2022/09/07 04:21:00;;;;;;;27.33;24.65;;;19.10;99.60;;;;;;5071125;28;20017;-54
2022/09/07 04:23:46;;;;;;;25.15;22.77;;;19.10;99.60;;;;;;5087098;28;20036;-56
2022/09/07 04:26:34;;;;;;;25.63;23.02;;;19.10;99.60;;;;;;5093489;28;20522;-54
2022/09/07 04:29:20;;;;;;;28.10;25.30;;;19.10;99.50;;;;;;5073538;28;20068;-50
2022/09/07 04:32:06;;;;;;;25.23;22.73;;;19.10;99.60;;;;;;5072671;28;20063;-51
2022/09/07 04:34:53;;;;;;;24.75;22.33;;;19.00;99.60;;;;;;5038206;28;20032;-53
2022/09/07 04:37:39;;;;;;;24.20;22.02;;;19.00;99.70;;;;;;5058342;28;20026;-50
2022/09/07 04:40:25;;;;;;;24.15;21.90;;;19.10;99.60;;;;;;5092313;28;20032;-50
2022/09/07 04:43:11;;;;;;;25.15;22.65;;;19.10;99.70;;;;;;5084490;28;20028;-55
2022/09/07 04:46:02;;;;;;;24.20;21.98;;;19.00;99.80;;;;;;5072636;28;20037;-52
2022/09/07 04:48:53;;;;;;;23.35;20.95;;;19.00;99.80;;;;;;5073260;28;20028;-53
2022/09/07 04:51:41;;;;;;;24.77;22.13;;;19.00;99.80;;;;;;5091125;28;20028;-54
2022/09/07 04:54:27;;;;;;;64.40;26.58;;;19.10;99.70;;;;;;5051855;28;20370;-53
2022/09/07 04:57:13;;;;;;;24.85;21.90;;;19.10;99.70;;;;;;5055038;28;20029;-53
2022/09/07 05:00:00;;;;;;;26.63;24.10;;;19.10;99.70;;;;;;5092453;28;20032;-52
2022/09/07 05:02:46;;;;;;;48.75;26.83;;;19.00;99.50;;;;;;5052497;28;20501;-59
2022/09/07 05:05:37;;;;;;;29.17;25.48;;;18.90;99.80;;;;;;5057116;28;20068;-53
2022/09/07 05:08:23;;;;;;;29.98;26.33;;;18.90;99.90;;;;;;5091153;28;20060;-54
2022/09/07 05:11:10;;;;;;;29.27;26.08;;;18.90;99.90;;;;;;5083151;28;20078;-50
2022/09/07 05:13:58;;;;;;;28.42;25.63;;;18.90;99.90;;;;;;5071400;28;20028;-51
2022/09/07 05:16:45;;;;;;;27.27;24.45;;;18.90;99.90;;;;;;5083160;28;20050;-50
2022/09/07 05:19:31;;;;;;;26.73;24.10;;;18.80;99.90;;;;;;5090968;28;20025;-52
2022/09/07 05:22:18;;;;;;;26.60;23.85;;;18.80;99.90;;;;;;5074720;28;20706;-55
2022/09/07 05:25:04;;;;;;;27.98;24.98;;;18.90;99.90;;;;;;5070883;28;20039;-53
2022/09/07 05:27:50;;;;;;;27.10;24.20;;;19.00;99.90;;;;;;5062496;28;20035;-50
2022/09/07 05:30:36;;;;;;;27.90;25.13;;;19.10;99.90;;;;;;5062460;28;20495;-51
2022/09/07 05:33:22;;;;;;;30.75;27.83;;;19.10;99.90;;;;;;5070775;28;20028;-50
2022/09/07 05:36:08;;;;;;;27.08;24.48;;;19.20;99.90;;;;;;5074165;28;20120;-49
2022/09/07 05:38:55;;;;;;;27.70;25.08;;;19.20;99.90;;;;;;5090406;28;20024;-49
2022/09/07 05:41:41;;;;;;;29.25;24.65;;;19.20;99.90;;;;;;5082889;28;20036;-51
2022/09/07 05:44:29;;;;;;;23.67;21.25;;;19.20;99.90;;;;;;5071307;28;20077;-51
2022/09/07 05:47:15;;;;;;;25.90;23.35;;;19.30;99.90;;;;;;5082133;28;20093;-54
2022/09/07 05:50:01;;;;;;;29.10;26.15;;;19.30;99.90;;;;;;5090286;28;20026;-48
2022/09/07 05:52:48;;;;;;;26.65;24.17;;;19.50;99.80;;;;;;5073938;28;20025;-52
2022/09/07 05:55:34;;;;;;;27.88;24.95;;;19.50;99.70;;;;;;5056920;28;20059;-51
2022/09/07 05:58:20;;;;;;;26.42;23.92;;;19.60;99.70;;;;;;5089952;28;20032;-54
2022/09/07 06:01:08;;;;;;;24.85;22.45;;;19.60;99.60;;;;;;5090355;28;20028;-52
2022/09/07 06:03:54;;;;;;;26.05;23.45;;;19.70;99.50;;;;;;5051367;28;20094;-56
2022/09/07 06:06:40;;;;;;;24.15;21.95;;;19.80;99.40;;;;;;5054546;28;20047;-55
2022/09/07 06:09:26;;;;;;;28.42;25.40;;;19.90;99.30;;;;;;5070547;28;20720;-51
2022/09/07 06:12:12;;;;;;;26.33;23.63;;;20.00;99.20;;;;;;5077619;28;20116;-55
2022/09/07 06:15:00;;;;;;;24.05;21.83;;;20.00;99.10;;;;;;5090580;28;20115;-59
2022/09/07 06:17:46;;;;;;;28.10;22.48;;;20.10;99.00;;;;;;5077728;28;20560;-51
2022/09/07 06:20:32;;;;;;;24.25;21.77;;;20.00;99.00;;;;;;5069671;28;20035;-50
2022/09/07 06:23:18;;;;;;;29.52;26.45;;;20.10;99.10;;;;;;5085552;28;20035;-51
2022/09/07 06:26:04;;;;;;;33.85;30.30;;;20.10;99.10;;;;;;5061200;28;20412;-54
2022/09/07 06:28:50;;;;;;;35.30;31.75;;;20.10;98.90;;;;;;5090612;28;20036;-54
2022/09/07 06:31:36;;;;;;;29.83;26.67;;;20.20;98.90;;;;;;5077308;28;20654;-54
2022/09/07 06:34:23;;;;;;;27.80;24.20;;;20.30;99.00;;;;;;5070006;28;20029;-53
2022/09/07 06:37:09;;;;;;;27.88;25.02;;;20.30;98.90;;;;;;5086057;28;20032;-54
2022/09/07 06:39:55;;;;;;;29.33;26.17;;;20.30;98.70;;;;;;5090392;28;20056;-54
2022/09/07 06:42:41;;;;;;;31.05;27.98;;;20.10;99.00;;;;;;5048365;28;20076;-53
2022/09/07 06:45:27;;;;;;;27.63;24.75;;;19.80;99.90;;;;;;5059055;28;20086;-56
2022/09/07 06:48:13;;;;;;;28.40;25.15;;;19.80;99.90;;;;;;5069585;28;20051;-51
2022/09/07 06:51:02;;;;;;;28.35;25.02;;;20.00;99.70;;;;;;5080759;28;20034;-52
2022/09/07 06:53:48;;;;;;;30.40;25.67;;;19.90;99.90;;;;;;5075151;28;20099;-55
2022/09/07 06:56:35;;;;;;;35.58;27.63;;;19.90;99.80;;;;;;5072411;28;20496;-55
2022/09/07 06:59:21;;;;;;;33.30;28.35;;;20.00;99.90;;;;;;5069715;28;20032;-51
2022/09/07 07:02:12;;;;;;;32.22;26.90;;;19.70;99.90;;;;;;5054228;28;20518;-52
2022/09/07 07:04:58;;;;;;;30.23;26.95;;;19.70;99.90;;;;;;5070356;28;20028;-53
2022/09/07 07:07:44;;;;;;;28.45;24.45;;;19.80;99.90;;;;;;5089113;28;20031;-56
2022/09/07 07:10:30;;;;;;;28.60;25.40;;;20.00;99.90;;;;;;5083335;28;20406;-55
2022/09/07 07:13:17;;;;;;;29.70;26.67;;;20.00;99.90;;;;;;5069349;28;20048;-55
2022/09/07 07:16:05;;;;;;;26.48;23.98;;;19.80;99.90;;;;;;5064466;28;20085;-55
2022/09/07 07:18:54;;;;;;;26.83;24.10;;;19.80;99.90;;;;;;5090175;28;20017;-56
2022/09/07 07:21:41;;;;;;;28.50;25.58;;;20.00;99.90;;;;;;5074472;28;20075;-53
2022/09/07 07:24:27;;;;;;;28.23;25.13;;;20.00;99.90;;;;;;5069478;28;20043;-55
2022/09/07 07:27:13;;;;;;;26.90;24.08;;;19.90;99.90;;;;;;5086392;28;20103;-54
2022/09/07 07:29:59;;;;;;;26.45;23.75;;;19.80;99.90;;;;;;5088726;28;20047;-56
2022/09/07 07:32:45;;;;;;;22.70;20.60;;;19.80;99.90;;;;;;5059499;28;20090;-55
2022/09/07 07:35:31;;;;;;;22.60;20.30;;;20.00;99.90;;;;;;5069755;28;20036;-55
2022/09/07 07:38:17;;;;;;;25.90;21.83;;;20.20;99.70;;;;;;5088798;28;20484;-54
2022/09/07 07:41:04;;;;;;;24.95;22.27;;;20.10;99.80;;;;;;5082375;28;20036;-55
2022/09/07 07:43:58;;;;;;;29.48;21.15;;;20.20;99.50;;;;;;5069291;28;20025;-56
2022/09/07 07:46:48;;;;;;;25.30;22.08;;;20.30;99.20;;;;;;5079792;28;20054;-56
2022/09/07 07:49:34;;;;;;;21.67;19.50;;;20.40;99.50;;;;;;5089145;28;20039;-53
2022/09/07 07:52:21;;;;;;;24.27;21.88;;;20.40;99.20;;;;;;5073980;28;20391;-55
2022/09/07 07:55:07;;;;;;;23.42;21.10;;;20.50;99.20;;;;;;5090851;28;20601;-56
2022/09/07 07:57:53;;;;;;;23.40;20.95;;;20.60;98.90;;;;;;5093217;28;20016;-54
2022/09/07 08:00:39;;;;;;;25.83;21.48;;;20.60;98.50;;;;;;5077506;28;20020;-55
2022/09/07 08:03:25;;;;;;;20.50;18.58;;;20.60;98.80;;;;;;5080498;28;20024;-58
2022/09/07 08:06:16;;;;;;;25.05;19.70;;;20.70;98.70;;;;;;5076368;28;20025;-55
2022/09/07 08:09:02;;;;;;;23.83;21.20;;;20.80;98.70;;;;;;5053023;28;20036;-53
2022/09/07 08:11:48;;;;;;;20.48;17.98;;;20.80;98.70;;;;;;5053985;28;20033;-50
2022/09/07 08:14:39;;;;;;;21.80;19.50;;;20.90;98.60;;;;;;5073550;28;20108;-55
2022/09/07 08:17:25;;;;;;;41.75;20.05;;;20.90;98.30;;;;;;5055700;28;20403;-55
2022/09/07 08:20:11;;;;;;;22.48;18.20;;;20.90;98.30;;;;;;5072213;28;20104;-54
2022/09/07 08:22:57;;;;;;;20.73;18.63;;;21.10;98.30;;;;;;5072980;28;20031;-56
2022/09/07 08:25:50;;;;;;;21.27;17.35;;;21.10;98.10;;;;;;5074633;28;20033;-54
2022/09/07 08:28:39;;;;;;;19.05;16.98;;;21.20;98.00;;;;;;5077860;28;20032;-54
2022/09/07 08:31:25;;;;;;;16.38;14.77;;;21.40;97.90;;;;;;5073042;28;20124;-52
2022/09/07 08:34:11;;;;;;;20.52;16.33;;;21.50;97.60;;;;;;5068314;28;20653;-51
2022/09/07 08:36:57;;;;;;;20.17;16.48;;;21.60;97.20;;;;;;5079266;28;20040;-52
2022/09/07 08:39:43;;;;;;;20.27;18.13;;;21.60;97.10;;;;;;5092700;28;20024;-50
2022/09/07 08:42:45;;;;;;;19.55;14.57;;;21.70;96.80;;;;;;5089127;28;20036;-54
2022/09/07 08:45:40;;;;;;;17.50;15.15;;;21.70;96.90;;;;;;5067378;28;20553;-53
2022/09/07 08:48:31;;;;;;;13.38;11.98;;;21.70;96.90;;;;;;5071621;28;20036;-52
2022/09/07 08:51:25;;;;;;;15.05;12.00;;;21.90;96.90;;;;;;5070541;28;20416;-51
2022/09/07 08:54:15;;;;;;;16.77;13.50;;;22.00;96.70;;;;;;5074929;28;20028;-51
2022/09/07 08:57:02;;;;;;;15.80;13.45;;;22.20;96.20;;;;;;5091253;28;20034;-54
2022/09/07 08:59:59;;;;;;;13.48;12.23;;;22.30;96.10;;;;;;5078681;28;20023;-52
2022/09/07 09:02:45;;;;;;;25.15;13.75;;;22.40;96.00;;;;;;5073535;28;21198;-54
2022/09/07 09:05:37;;;;;;;17.42;13.57;;;22.50;95.80;;;;;;5084768;28;20028;-54
2022/09/07 09:08:35;;;;;;;16.40;13.95;;;22.50;95.70;;;;;;5084879;28;20458;-56
2022/09/07 09:11:45;;;;;;;18.55;13.30;;;22.50;95.60;;;;;;5065132;28;20116;-49
2022/09/07 09:14:51;;;;;;;13.88;12.52;;;22.60;95.60;;;;;;5089653;28;20020;-53
2022/09/07 09:17:46;;;;;;;15.85;13.40;;;22.70;95.40;;;;;;5072055;28;20032;-52
2022/09/07 09:20:43;;;;;;;19.23;13.30;;;23.00;95.10;;;;;;5067158;28;20484;-49
2022/09/07 09:23:40;;;;;;;13.10;11.77;;;23.00;94.70;;;;;;5079723;28;20545;-52
2022/09/07 09:26:31;;;;;;;14.60;11.80;;;23.20;94.70;;;;;;5080074;28;20148;-55
2022/09/07 09:29:20;;;;;;;19.63;13.70;;;23.10;94.50;;;;;;5077958;28;20453;-48
2022/09/07 09:32:33;;;;;;;21.67;13.50;;;23.10;94.30;;;;;;5080662;28;20386;-52
2022/09/07 09:35:22;;;;;;;18.70;14.93;;;23.00;94.40;;;;;;5078998;28;20024;-51
2022/09/07 09:38:33;;;;;;;18.92;13.18;;;22.70;94.80;;;;;;5078250;28;20023;-53
2022/09/07 09:41:19;;;;;;;17.42;15.43;;;22.70;95.00;;;;;;5078917;28;20023;-51
2022/09/07 09:44:14;;;;;;;18.23;16.33;;;22.60;94.80;;;;;;5079143;28;20404;-52
2022/09/07 09:47:01;;;;;;;18.30;13.63;;;22.50;95.20;;;;;;5077483;28;20515;-52
2022/09/07 09:49:47;;;;;;;15.75;13.80;;;22.50;95.40;;;;;;5049477;28;20036;-55
2022/09/07 09:52:35;;;;;;;19.80;17.65;;;22.60;95.50;;;;;;5078596;28;20496;-51
2022/09/07 09:55:36;;;;;;;18.55;16.85;;;22.80;95.10;;;;;;5062773;28;20063;-49
2022/09/07 09:58:34;;;;;;;18.23;16.38;;;22.80;95.20;;;;;;5077993;28;20081;-51
2022/09/07 10:01:31;;;;;;;20.13;15.13;;;22.90;95.30;;;;;;5077817;28;20048;-54
2022/09/07 10:04:26;;;;;;;18.23;16.13;;;23.20;94.90;;;;;;5078285;28;20029;-51
2022/09/07 10:07:24;;;;;;;18.67;16.50;;;23.40;94.50;;;;;;5064064;28;20047;-47
2022/09/07 10:10:15;;;;;;;19.83;17.60;;;23.50;94.40;;;;;;5077543;28;20056;-48
2022/09/07 10:13:01;;;;;;;30.88;21.08;;;23.50;94.10;;;;;;5087823;28;20024;-51
2022/09/07 10:15:53;;;;;;;21.38;19.08;;;23.30;94.10;;;;;;5078552;28;20491;-55
2022/09/07 10:18:43;;;;;;;22.70;19.60;;;23.20;94.50;;;;;;5076559;28;20059;-47
2022/09/07 10:21:30;;;;;;;17.73;16.13;;;23.40;94.30;;;;;;5076696;28;20463;-50
2022/09/07 10:24:25;;;;;;;21.30;19.10;;;23.60;94.30;;;;;;5077339;28;20107;-53
2022/09/07 10:27:36;;;;;;;20.00;17.98;;;23.80;93.70;;;;;;5077471;28;20024;-50
2022/09/07 10:30:22;;;;;;;20.92;18.45;;;24.00;93.60;;;;;;5076718;28;20093;-51
2022/09/07 10:33:33;;;;;;;21.35;18.95;;;24.00;93.40;;;;;;5077346;28;20035;-55
2022/09/07 10:36:48;;;;;;;17.55;15.73;;;24.00;93.40;;;;;;5074848;28;20036;-57
2022/09/07 10:39:41;;;;;;;22.25;19.85;;;23.90;93.80;;;;;;5053208;28;20321;-64
2022/09/07 10:42:34;;;;;;;17.70;15.73;;;24.10;93.50;;;;;;5066504;28;20025;-54
2022/09/07 10:45:39;;;;;;;20.23;15.52;;;24.30;93.30;;;;;;5085016;28;20032;-51
2022/09/07 10:48:31;;;;;;;;;;;24.40;93.00;;;;;;5086743;28;20028;-50
2022/09/07 10:51:29;;;;;;;17.65;15.18;;;24.50;92.70;;;;;;5034891;28;19904;-52
2022/09/07 10:54:24;;;;;;;22.10;16.85;;;24.60;92.60;;;;;;5071753;28;20052;-52
2022/09/07 10:57:37;;;;;;;23.08;17.80;;;24.80;92.40;;;;;;5089107;28;20025;-54
2022/09/07 11:00:27;;;;;;;21.80;15.60;;;24.60;92.40;;;;;;5054594;28;20028;-52
2022/09/07 11:03:25;;;;;;;17.15;14.30;;;24.60;92.70;;;;;;5069006;28;20025;-52
2022/09/07 11:06:51;;;;;;;18.10;15.82;;;24.70;92.40;;;;;;5049635;28;20104;-51
2022/09/07 11:09:58;;;;;;;21.45;15.80;;;24.80;92.10;;;;;;5021886;28;20033;-55
2022/09/07 11:12:45;;;;;;;18.08;15.30;;;25.00;91.90;;;;;;5053249;28;20068;-54
2022/09/07 11:15:44;;;;;;;15.93;14.40;;;25.00;91.90;;;;;;5068283;28;20060;-55
2022/09/07 11:18:57;;;;;;;21.73;14.20;;;25.20;92.00;;;;;;5070198;28;20697;-51
2022/09/07 11:22:13;;;;;;;18.08;13.80;;;25.40;91.50;;;;;;5049085;28;20532;-51
2022/09/07 11:25:16;;;;;;;20.45;14.20;;;25.40;90.80;;;;;;5083914;28;20481;-51
2022/09/07 11:28:13;;;;;;;18.30;14.27;;;25.50;90.80;;;;;;5089047;28;20632;-57
2022/09/07 11:31:06;;;;;;;13.88;11.85;;;25.50;90.70;;;;;;5072726;28;20025;-56
2022/09/07 11:34:03;;;;;;;15.73;13.57;;;25.70;90.60;;;;;;5085932;28;20031;-55
2022/09/07 11:37:19;;;;;;;15.35;12.65;;;25.80;90.00;;;;;;5080315;28;20384;-58
2022/09/07 11:40:14;;;;;;;12.77;11.45;;;25.80;90.10;;;;;;5054251;28;20053;-56
2022/09/07 11:43:30;;;;;;;14.07;11.90;;;26.00;90.20;;;;;;5083683;28;20496;-55
2022/09/07 11:46:28;;;;;;;16.88;11.65;;;26.20;89.30;;;;;;5088883;28;20060;-58
2022/09/07 11:49:22;;;;;;;13.48;12.00;;;26.40;88.20;;;;;;5081319;28;20032;-58
2022/09/07 11:52:40;;;;;;;14.13;10.77;;;26.40;88.00;;;;;;5079469;28;20344;-59
2022/09/07 11:55:34;;;;;;;10.60;9.50;;;26.60;87.60;;;;;;5080265;28;20104;-60
2022/09/07 11:58:38;;;;;;;;;;;26.70;88.10;;;;;;5080097;28;20035;-59
2022/09/07 12:01:24;;;;;;;12.45;11.00;;;26.80;87.00;;;;;;5080799;28;19944;-57
2022/09/07 12:04:28;;;;;;;13.98;10.45;;;26.80;86.90;;;;;;5071985;28;20453;-60
2022/09/07 12:07:36;;;;;;;13.48;11.20;;;27.00;86.80;;;;;;5089483;28;20556;-57
2022/09/07 12:10:52;;;;;;;17.90;10.90;;;26.90;86.50;;;;;;5090374;28;20040;-60
2022/09/07 12:14:04;;;;;;;16.20;9.65;;;26.90;86.20;;;;;;5083446;28;20043;-56
2022/09/07 12:17:03;;;;;;;11.73;10.50;;;26.90;85.70;;;;;;5072543;28;20032;-58
2022/09/07 12:20:13;;;;;;;13.93;9.77;;;27.00;85.30;;;;;;5072519;28;20025;-57
2022/09/07 12:23:12;;;;;;;13.88;10.25;;;27.10;85.10;;;;;;5060462;28;20017;-56
2022/09/07 12:26:44;;;;;;;10.73;9.20;;;27.30;84.60;;;;;;5078336;28;20039;-58
2022/09/07 12:29:31;;;;;;;9.68;8.77;;;27.40;84.60;;;;;;5077848;28;20032;-58
2022/09/07 12:32:45;;;;;;;15.15;9.32;;;27.40;84.00;;;;;;5072019;28;20033;-57
2022/09/07 12:35:41;;;;;;;10.15;7.75;;;27.40;83.40;;;;;;5044377;28;20032;-59
2022/09/07 12:38:30;;;;;;;9.63;7.90;;;27.60;82.30;;;;;;5072006;28;20032;-59
2022/09/07 12:41:38;;;;;;;11.02;7.88;;;27.60;82.40;;;;;;5056724;28;20029;-56
2022/09/07 12:44:24;;;;;;;10.75;7.57;;;27.70;81.90;;;;;;5090449;28;20078;-59
2022/09/07 12:47:10;;;;;;;8.35;7.55;;;27.60;82.00;;;;;;5077104;28;20051;-60
2022/09/07 12:50:20;;;;;;;9.93;7.88;;;27.80;82.10;;;;;;5067857;28;20020;-58
2022/09/07 12:53:11;;;;;;;7.60;6.65;;;27.70;81.70;;;;;;5071970;28;20404;-63
2022/09/07 12:56:03;;;;;;;10.25;6.72;;;27.90;80.20;;;;;;5071748;28;20525;-60
2022/09/07 12:59:11;;;;;;;7.32;6.63;;;28.00;79.60;;;;;;5075919;28;20048;-59
2022/09/07 13:02:22;;;;;;;10.85;6.43;;;28.20;79.30;;;;;;5061441;28;20477;-60
2022/09/07 13:05:19;;;;;;;10.80;6.47;;;28.60;78.80;;;;;;5065797;28;20124;-58
2022/09/07 13:08:11;;;;;;;10.98;5.88;;;28.80;77.50;;;;;;5081947;28;20031;-61
2022/09/07 13:11:20;;;;;;;9.32;5.90;;;28.90;77.10;;;;;;5076911;28;20583;-62
2022/09/07 13:14:18;;;;;;;10.70;5.70;;;28.70;77.50;;;;;;5066461;28;20028;-62
2022/09/07 13:17:33;;;;;;;10.40;5.95;;;28.50;77.30;;;;;;5041457;28;20119;-62
2022/09/07 13:20:22;;;;;;;;;;;28.20;77.70;;;;;;5056882;28;20033;-59
2022/09/07 13:23:19;;;;;;;11.40;6.22;;;27.80;78.40;;;;;;5069459;28;19904;-59
2022/09/07 13:26:09;;;;;;;12.50;6.43;;;27.90;79.00;;;;;;5073363;28;20024;-59
2022/09/07 13:29:01;;;;;;;8.98;6.18;;;28.40;78.10;;;;;;5077712;28;20024;-60
2022/09/07 13:32:04;;;;;;;10.13;5.82;;;28.70;77.80;;;;;;5079712;28;20036;-60
2022/09/07 13:35:09;;;;;;;11.17;6.60;;;28.80;77.10;;;;;;5078944;28;20041;-59
2022/09/07 13:37:58;;;;;;;7.35;6.05;;;29.10;76.60;;;;;;5079026;28;20266;-60
2022/09/07 13:40:46;;;;;;;8.60;5.30;;;29.50;76.80;;;;;;5079109;28;20031;-59
2022/09/07 13:43:34;;;;;;;7.55;5.22;;;29.50;74.70;;;;;;5065467;28;20024;-58
2022/09/07 13:46:20;;;;;;;7.40;5.72;;;29.10;74.70;;;;;;5078551;28;20020;-55
2022/09/07 13:49:20;;;;;;;9.07;5.35;;;28.70;76.00;;;;;;5076753;28;20023;-57
2022/09/07 13:52:29;;;;;;;8.55;5.15;;;28.60;75.70;;;;;;5063311;28;20031;-60
2022/09/07 13:55:41;;;;;;;9.80;5.20;;;28.30;76.40;;;;;;5080557;28;20028;-57
2022/09/07 13:58:42;;;;;;;6.68;4.93;;;28.30;76.80;;;;;;5079535;28;20017;-59
2022/09/07 14:01:30;;;;;;;9.07;5.25;;;28.50;76.80;;;;;;5077756;28;20463;-61
2022/09/07 14:04:28;;;;;;;8.15;5.97;;;28.50;77.00;;;;;;5064353;28;20024;-62
2022/09/07 14:07:18;;;;;;;11.00;5.60;;;28.60;76.30;;;;;;5080325;28;20062;-56
2022/09/07 14:10:09;;;;;;;9.48;5.80;;;29.00;76.10;;;;;;5080457;28;20028;-59
2022/09/07 14:13:06;;;;;;;9.07;6.00;;;29.30;75.20;;;;;;5065686;28;20027;-59
2022/09/07 14:15:52;;;;;;;8.73;5.43;;;29.20;75.30;;;;;;5079068;28;20032;-59
2022/09/07 14:18:39;;;;;;;6.97;6.13;;;29.50;74.40;;;;;;5080254;28;20539;-59
2022/09/07 14:21:25;;;;;;;6.60;5.35;;;29.60;74.30;;;;;;5078722;28;20061;-60
2022/09/07 14:24:23;;;;;;;8.32;5.50;;;29.50;74.20;;;;;;5079024;28;20024;-61
2022/09/07 14:27:34;;;;;;;8.10;5.40;;;29.30;73.80;;;;;;5077273;28;20104;-60
2022/09/07 14:30:24;;;;;;;12.93;5.43;;;29.00;74.60;;;;;;5079093;28;20172;-58
2022/09/07 14:33:16;;;;;;;9.50;5.80;;;28.90;75.10;;;;;;5076805;28;20603;-58
2022/09/07 14:36:04;;;;;;;5.78;4.70;;;28.80;75.60;;;;;;5050186;28;20041;-58
2022/09/07 14:38:50;;;;;;;5.82;4.88;;;28.50;75.50;;;;;;5035608;28;20115;-58